createdAt,value
2022-11-23T00:01:37.342Z,9.50
2022-11-23T00:04:07.386Z,9.50
2022-11-23T00:06:36.257Z,9.50
2022-11-23T00:09:04.726Z,9.50
2022-11-23T00:11:34.872Z,9.50
2022-11-23T00:14:04.843Z,9.40
2022-11-23T00:16:33.455Z,9.50
2022-11-23T00:19:02.807Z,9.50
2022-11-23T00:21:32.678Z,9.50
2022-11-23T00:24:01.314Z,9.40
2022-11-23T00:26:29.400Z,9.40
2022-11-23T00:28:57.524Z,9.40
2022-11-23T00:31:29.594Z,9.30
2022-11-23T00:33:59.047Z,9.20
2022-11-23T00:36:28.519Z,9.10
2022-11-23T00:38:57.927Z,9.10
2022-11-23T00:41:28.247Z,9.10
2022-11-23T00:43:56.385Z,9.00
2022-11-23T00:46:25.730Z,9.00
2022-11-23T00:48:56.971Z,9.00
2022-11-23T00:51:28.625Z,9.00
2022-11-23T00:53:57.262Z,9.00
2022-11-23T00:56:27.340Z,9.10
2022-11-23T00:58:57.400Z,9.10
2022-11-23T01:01:27.456Z,9.20
2022-11-23T01:03:59.100Z,9.30
2022-11-23T01:06:32.064Z,9.30
2022-11-23T01:09:02.495Z,9.30
2022-11-23T01:11:32.903Z,9.30
2022-11-23T01:14:02.292Z,9.40
2022-11-23T01:16:32.690Z,9.30
2022-11-23T01:19:04.082Z,9.30
2022-11-23T01:21:34.439Z,9.30
2022-11-23T01:24:05.619Z,9.30
2022-11-23T01:26:34.226Z,9.40
2022-11-23T01:29:02.365Z,9.40
2022-11-23T01:31:30.708Z,9.40
2022-11-23T01:34:01.722Z,9.40
2022-11-23T01:36:31.906Z,9.30
2022-11-23T01:39:01.420Z,9.30
2022-11-23T01:41:32.786Z,9.40
2022-11-23T01:44:01.655Z,9.30
2022-11-23T01:46:29.741Z,9.40
2022-11-23T01:49:02.719Z,9.30
2022-11-23T01:51:36.176Z,9.30
2022-11-23T01:54:10.303Z,9.30
2022-11-23T01:56:41.584Z,9.20
2022-11-23T01:59:13.380Z,9.30
2022-11-23T02:01:47.160Z,9.30
2022-11-23T02:04:23.507Z,9.20
2022-11-23T02:06:54.173Z,9.30
2022-11-23T02:09:23.631Z,9.30
2022-11-23T02:11:53.035Z,9.30
2022-11-23T02:14:23.508Z,9.40
2022-11-23T02:16:54.898Z,9.30
2022-11-23T02:19:31.881Z,9.30
2022-11-23T02:22:01.899Z,9.40
2022-11-23T02:24:35.121Z,9.40
2022-11-23T02:27:06.852Z,9.40
2022-11-23T02:29:36.166Z,9.30
2022-11-23T02:32:04.547Z,9.40
2022-11-23T02:34:32.744Z,9.40
2022-11-23T02:37:02.118Z,9.40
2022-11-23T02:39:42.093Z,9.40
2022-11-23T02:42:12.671Z,9.40
2022-11-23T02:44:47.658Z,9.40
2022-11-23T02:47:16.256Z,9.40
2022-11-23T02:49:47.711Z,9.40
2022-11-23T02:52:17.268Z,9.30
2022-11-23T02:54:45.528Z,9.30
2022-11-23T02:57:16.036Z,9.30
2022-11-23T02:59:47.587Z,9.30
2022-11-23T03:02:15.708Z,9.30
2022-11-23T03:04:43.848Z,9.30
2022-11-23T03:07:11.924Z,9.20
2022-11-23T03:09:40.441Z,9.20
2022-11-23T03:12:08.669Z,9.20
2022-11-23T03:14:38.885Z,9.10
2022-11-23T03:17:07.033Z,9.10
2022-11-23T03:19:42.349Z,9.10
2022-11-23T03:22:12.208Z,9.10
2022-11-23T03:24:40.621Z,9.10
2022-11-23T03:27:11.888Z,9.10
2022-11-23T03:29:42.559Z,9.20
2022-11-23T03:32:16.754Z,9.20
2022-11-23T03:34:48.148Z,9.30
2022-11-23T03:37:17.284Z,9.30
2022-11-23T03:39:47.511Z,9.30
2022-11-23T03:42:34.755Z,9.30
2022-11-23T03:45:04.793Z,9.30
2022-11-23T03:47:32.918Z,9.30
2022-11-23T03:50:01.182Z,9.30
2022-11-23T03:52:31.046Z,9.30
2022-11-23T03:54:59.124Z,9.40
2022-11-23T03:57:27.180Z,9.30
2022-11-23T03:59:55.426Z,9.30
2022-11-23T04:02:27.732Z,9.40
2022-11-23T04:05:07.280Z,9.40
2022-11-23T04:07:56.788Z,9.30
2022-11-23T04:10:30.302Z,9.30
2022-11-23T04:13:15.365Z,9.30
2022-11-23T04:15:43.529Z,9.30
2022-11-23T04:18:13.328Z,9.30
2022-11-23T04:20:41.404Z,9.30
2022-11-23T04:23:13.387Z,9.30
2022-11-23T04:25:42.990Z,9.30
2022-11-23T04:28:11.626Z,9.40
2022-11-23T04:30:39.960Z,9.30
2022-11-23T04:33:08.447Z,9.30
2022-11-23T04:35:39.399Z,9.30
2022-11-23T04:38:08.519Z,9.30
2022-11-23T04:40:38.203Z,9.30
2022-11-23T04:43:09.540Z,9.30
2022-11-23T04:45:42.126Z,9.30
2022-11-23T04:48:18.269Z,9.30
2022-11-23T04:50:51.867Z,9.40
2022-11-23T04:53:27.969Z,9.30
2022-11-23T04:55:56.250Z,9.30
2022-11-23T04:58:25.407Z,9.30
2022-11-23T05:00:59.073Z,9.40
2022-11-23T05:03:27.792Z,9.40
2022-11-23T05:05:59.705Z,9.40
2022-11-23T05:08:32.421Z,9.40
2022-11-23T05:11:29.012Z,9.40
2022-11-23T05:13:59.778Z,9.40
2022-11-23T05:16:28.611Z,9.30
2022-11-23T05:18:56.778Z,9.40
2022-11-23T05:21:27.528Z,9.40
2022-11-23T05:23:56.286Z,9.40
2022-11-23T05:26:24.954Z,9.30
2022-11-23T05:28:54.170Z,9.30
2022-11-23T05:31:22.239Z,9.30
2022-11-23T05:33:50.408Z,9.20
2022-11-23T05:36:26.674Z,9.20
2022-11-23T05:38:54.885Z,9.20
2022-11-23T05:41:30.012Z,9.20
2022-11-23T05:44:01.178Z,9.20
2022-11-23T05:46:30.724Z,9.30
2022-11-23T05:48:58.980Z,9.20
2022-11-23T05:51:43.880Z,9.20
2022-11-23T05:54:12.430Z,9.20
2022-11-23T05:56:45.409Z,9.30
2022-11-23T05:59:20.008Z,9.20
2022-11-23T06:01:53.322Z,9.20
2022-11-23T06:04:27.136Z,9.30
2022-11-23T06:07:01.013Z,9.20
2022-11-23T06:09:36.239Z,9.20
2022-11-23T06:12:08.788Z,9.30
2022-11-23T06:14:37.316Z,9.30
2022-11-23T06:17:05.964Z,9.30
2022-11-23T06:19:44.634Z,9.20
2022-11-23T06:22:16.183Z,9.20
2022-11-23T06:24:57.618Z,9.30
2022-11-23T06:27:54.352Z,9.30
2022-11-23T06:30:26.993Z,9.30
2022-11-23T06:32:58.844Z,9.20
2022-11-23T06:35:26.976Z,9.30
2022-11-23T06:37:56.755Z,9.20
2022-11-23T06:40:25.183Z,9.20
2022-11-23T06:42:59.566Z,9.20
2022-11-23T06:45:46.368Z,9.10
2022-11-23T06:48:16.261Z,9.10
2022-11-23T06:50:48.322Z,9.10
2022-11-23T06:53:19.786Z,9.10
2022-11-23T06:55:52.492Z,9.10
2022-11-23T06:58:22.103Z,9.00
2022-11-23T07:00:50.307Z,9.00
2022-11-23T07:03:21.810Z,9.00
2022-11-23T07:05:54.608Z,9.00
2022-11-23T07:08:27.151Z,9.00
2022-11-23T07:11:02.196Z,9.00
2022-11-23T07:13:30.934Z,9.00
2022-11-23T07:15:59.784Z,8.90
2022-11-23T07:18:29.333Z,9.00
2022-11-23T07:21:01.392Z,9.00
2022-11-23T07:23:30.855Z,9.10
2022-11-23T07:25:59.020Z,9.30
2022-11-23T07:28:27.067Z,9.40
2022-11-23T07:30:55.193Z,9.40
2022-11-23T07:33:23.722Z,9.30
2022-11-23T07:35:52.586Z,9.20
2022-11-23T07:38:21.862Z,9.20
2022-11-23T07:40:52.161Z,9.10
2022-11-23T07:43:48.061Z,9.10
2022-11-23T07:46:16.308Z,9.10
2022-11-23T07:48:44.404Z,9.10
2022-11-23T07:51:12.478Z,9.20
2022-11-23T07:53:42.307Z,9.10
2022-11-23T07:56:11.995Z,9.10
2022-11-23T07:58:40.215Z,9.20
2022-11-23T08:01:08.476Z,9.00
2022-11-23T08:03:36.988Z,9.10
2022-11-23T08:06:05.189Z,9.30
2022-11-23T08:08:35.128Z,9.70
2022-11-23T08:11:03.235Z,9.80
2022-11-23T08:13:34.618Z,10.70
2022-11-23T08:16:02.750Z,11.50
2022-11-23T08:18:31.464Z,11.60
2022-11-23T08:21:01.397Z,11.30
2022-11-23T08:23:30.073Z,11.40
2022-11-23T08:25:58.332Z,11.00
2022-11-23T08:28:27.378Z,11.20
2022-11-23T08:30:57.184Z,11.30
2022-11-23T08:35:56.167Z,10.20
2022-11-23T08:38:26.243Z,10.30
2022-11-23T08:40:58.764Z,11.50
2022-11-23T08:43:26.901Z,12.30
2022-11-23T08:46:03.268Z,13.00
2022-11-23T08:48:32.932Z,12.70
2022-11-23T08:51:01.634Z,12.30
2022-11-23T08:53:29.846Z,12.60
2022-11-23T08:56:01.189Z,12.30
2022-11-23T08:58:29.622Z,11.30
2022-11-23T09:00:59.065Z,11.20
2022-11-23T09:03:27.110Z,11.60
2022-11-23T09:05:55.365Z,12.20
2022-11-23T09:08:23.614Z,12.00
2022-11-23T09:10:51.867Z,11.90
2022-11-23T09:13:19.958Z,12.10
2022-11-23T09:15:48.124Z,12.40
2022-11-23T09:18:17.531Z,13.30
2022-11-23T09:20:45.629Z,13.80
2022-11-23T09:23:14.472Z,13.80
2022-11-23T09:25:43.210Z,13.10
2022-11-23T09:28:14.793Z,12.70
2022-11-23T09:30:43.288Z,13.10
2022-11-23T09:36:03.124Z,14.20
2022-11-23T09:38:55.604Z,14.40
2022-11-23T09:41:45.692Z,14.20
2022-11-23T09:44:22.990Z,13.30
2022-11-23T09:47:03.067Z,14.60
2022-11-23T09:49:35.744Z,14.90
2022-11-23T09:52:10.170Z,14.90
2022-11-23T09:54:41.036Z,14.80
2022-11-23T09:57:13.486Z,15.30
2022-11-23T09:59:43.281Z,15.30
2022-11-23T10:02:21.888Z,14.60
2022-11-23T10:04:50.120Z,14.90
2022-11-23T10:07:36.409Z,14.50
2022-11-23T10:10:14.463Z,14.70
2022-11-23T10:12:51.711Z,14.50
2022-11-23T10:15:25.568Z,14.30
2022-11-23T10:18:25.217Z,14.30
2022-11-23T10:21:00.609Z,14.40
2022-11-23T10:23:48.091Z,15.10
2022-11-23T10:26:19.041Z,14.60
2022-11-23T10:28:48.453Z,14.80
2022-11-23T10:31:19.019Z,14.70
2022-11-23T10:33:55.696Z,14.80
2022-11-23T10:36:23.795Z,14.40
2022-11-23T10:38:58.796Z,14.40
2022-11-23T10:41:27.326Z,14.80
2022-11-23T10:44:02.332Z,14.60
2022-11-23T10:46:32.865Z,14.70
2022-11-23T10:49:15.578Z,14.70
2022-11-23T10:51:52.265Z,14.10
2022-11-23T10:54:25.711Z,13.60
2022-11-23T10:56:55.467Z,13.70
2022-11-23T10:59:38.619Z,14.50
2022-11-23T11:02:19.844Z,14.20
2022-11-23T11:04:53.222Z,13.80
2022-11-23T11:07:39.601Z,13.60
2022-11-23T11:10:38.625Z,13.50
2022-11-23T11:13:26.052Z,13.40
2022-11-23T11:15:59.333Z,13.50
2022-11-23T11:18:31.064Z,13.60
2022-11-23T11:21:01.968Z,13.70
2022-11-23T11:23:35.069Z,13.60
2022-11-23T11:26:12.972Z,13.50
2022-11-23T11:28:43.776Z,13.40
2022-11-23T11:31:45.627Z,13.60
2022-11-23T11:34:23.142Z,13.20
2022-11-23T11:37:03.445Z,12.30
2022-11-23T11:39:37.290Z,11.60
2022-11-23T11:42:14.488Z,11.30
2022-11-23T11:44:44.121Z,11.20
2022-11-23T11:47:23.817Z,11.30
2022-11-23T11:49:56.194Z,11.70
2022-11-23T11:52:29.396Z,13.00
2022-11-23T11:55:04.203Z,13.00
2022-11-23T11:57:37.659Z,12.00
2022-11-23T12:00:14.074Z,11.40
2022-11-23T12:02:52.380Z,11.00
2022-11-23T12:05:25.277Z,11.10
2022-11-23T12:08:07.915Z,11.10
2022-11-23T12:10:43.209Z,10.90
2022-11-23T12:13:16.881Z,11.00
2022-11-23T12:15:50.407Z,11.00
2022-11-23T12:18:37.474Z,11.00
2022-11-23T12:21:06.832Z,11.10
2022-11-23T12:23:47.681Z,11.20
2022-11-23T12:26:25.847Z,11.40
2022-11-23T12:29:25.120Z,11.30
2022-11-23T12:32:00.984Z,11.20
2022-11-23T12:34:46.907Z,11.50
2022-11-23T12:37:32.674Z,11.60
2022-11-23T12:40:30.989Z,11.90
2022-11-23T12:43:03.678Z,12.10
2022-11-23T12:45:48.052Z,12.10
2022-11-23T12:48:38.940Z,12.20
2022-11-23T12:51:19.352Z,12.00
2022-11-23T12:53:56.028Z,11.90
2022-11-23T12:56:45.240Z,11.80
2022-11-23T12:59:14.991Z,11.90
2022-11-23T13:01:48.518Z,11.80
2022-11-23T13:04:46.233Z,11.70
2022-11-23T13:07:43.222Z,11.60
2022-11-23T13:10:27.422Z,11.60
2022-11-23T13:13:14.089Z,11.50
2022-11-23T13:16:12.094Z,11.30
2022-11-23T13:19:04.177Z,11.20
2022-11-23T13:21:37.856Z,11.10
2022-11-23T13:24:18.524Z,11.00
2022-11-23T13:26:46.598Z,11.00
2022-11-23T13:29:49.166Z,10.80
2022-11-23T13:32:35.566Z,10.80
2022-11-23T13:35:25.945Z,10.60
2022-11-23T13:38:37.484Z,10.60
2022-11-23T13:41:36.603Z,10.60
2022-11-23T13:44:13.585Z,10.60
2022-11-23T13:46:42.662Z,10.60
2022-11-23T13:49:31.533Z,10.50
2022-11-23T13:52:39.890Z,10.40
2022-11-23T13:55:22.164Z,10.30
2022-11-23T13:58:23.752Z,10.20
2022-11-23T14:00:53.807Z,10.20
2022-11-23T14:03:48.683Z,10.20
2022-11-23T14:06:23.082Z,10.10
2022-11-23T14:08:58.330Z,10.20
2022-11-23T14:11:28.273Z,10.10
2022-11-23T14:13:59.586Z,10.10
2022-11-23T14:16:48.838Z,10.10
2022-11-23T14:19:25.954Z,10.10
2022-11-23T14:22:07.900Z,10.10
2022-11-23T14:25:02.608Z,10.10
2022-11-23T14:27:47.879Z,10.10
2022-11-23T14:30:40.044Z,10.10
2022-11-23T14:33:20.257Z,10.10
2022-11-23T14:35:58.009Z,10.20
2022-11-23T14:38:51.261Z,10.20
2022-11-23T14:41:23.433Z,10.20
2022-11-23T14:43:52.239Z,10.30
2022-11-23T14:46:24.775Z,10.30
2022-11-23T14:48:53.940Z,10.30
2022-11-23T14:51:26.472Z,10.40
2022-11-23T14:53:57.374Z,10.40
2022-11-23T14:56:35.203Z,10.40
2022-11-23T14:59:05.833Z,10.40
2022-11-23T15:01:34.873Z,10.40
2022-11-23T15:04:09.922Z,10.30
2022-11-23T15:06:45.739Z,10.30
2022-11-23T15:09:22.443Z,10.40
2022-11-23T15:11:52.070Z,10.20
2022-11-23T15:14:21.523Z,9.90
2022-11-23T15:16:50.041Z,9.70
2022-11-23T15:19:19.703Z,9.50
2022-11-23T15:21:49.340Z,9.20
2022-11-23T15:24:23.377Z,9.00
2022-11-23T15:26:53.592Z,8.90
2022-11-23T15:29:33.078Z,8.80
2022-11-23T15:34:51.070Z,8.70
2022-11-23T15:37:19.500Z,8.60
2022-11-23T15:39:48.684Z,8.50
2022-11-23T15:42:20.557Z,8.50
2022-11-23T15:44:51.451Z,8.40
2022-11-23T15:47:28.291Z,8.40
2022-11-23T15:50:02.346Z,8.30
2022-11-23T15:52:35.200Z,8.30
2022-11-23T15:55:09.248Z,8.30
2022-11-23T15:57:56.542Z,8.30
2022-11-23T16:00:26.679Z,8.30
2022-11-23T16:03:33.081Z,8.20
2022-11-23T16:06:18.205Z,8.20
2022-11-23T16:08:46.847Z,8.20
2022-11-23T16:11:23.188Z,8.20
2022-11-23T16:13:52.663Z,8.10
2022-11-23T16:16:23.409Z,8.10
2022-11-23T16:18:56.764Z,8.10
2022-11-23T16:21:26.270Z,8.10
2022-11-23T16:23:56.707Z,8.10
2022-11-23T16:26:32.216Z,8.10
2022-11-23T16:29:02.372Z,8.10
2022-11-23T16:31:32.253Z,8.10
2022-11-23T16:34:00.315Z,8.10
2022-11-23T16:36:28.626Z,8.10
2022-11-23T16:38:59.730Z,8.10
2022-11-23T16:41:29.445Z,8.10
2022-11-23T16:44:01.603Z,8.10
2022-11-23T16:46:29.755Z,8.00
2022-11-23T16:48:59.223Z,8.10
2022-11-23T16:51:27.672Z,8.00
2022-11-23T16:54:14.518Z,8.10
2022-11-23T16:56:45.053Z,8.00
2022-11-23T16:59:19.030Z,8.10
2022-11-23T17:01:53.959Z,8.10
2022-11-23T17:04:25.241Z,8.00
2022-11-23T17:06:53.390Z,8.00
2022-11-23T17:09:21.418Z,7.90
2022-11-23T17:11:50.837Z,8.00
2022-11-23T17:14:24.113Z,7.90
2022-11-23T17:16:54.899Z,7.90
2022-11-23T17:19:23.279Z,7.90
2022-11-23T17:21:51.327Z,7.90
2022-11-23T17:24:20.187Z,7.90
2022-11-23T17:26:52.664Z,7.90
2022-11-23T17:29:24.070Z,7.90
2022-11-23T17:31:52.936Z,7.90
2022-11-23T17:34:20.960Z,7.80
2022-11-23T17:36:52.508Z,7.80
2022-11-23T17:39:24.164Z,7.80
2022-11-23T17:41:52.245Z,7.80
2022-11-23T17:44:21.595Z,7.80
2022-11-23T17:46:51.806Z,7.70
2022-11-23T17:49:23.396Z,7.80
2022-11-23T17:51:51.455Z,7.70
2022-11-23T17:54:21.648Z,7.70
2022-11-23T17:56:51.149Z,7.70
2022-11-23T17:59:20.815Z,7.60
2022-11-23T18:01:49.029Z,7.70
2022-11-23T18:04:17.137Z,7.70
2022-11-23T18:06:45.171Z,7.70
2022-11-23T18:09:13.235Z,7.70
2022-11-23T18:11:42.502Z,7.70
2022-11-23T18:14:10.634Z,7.70
2022-11-23T18:16:40.491Z,7.70
2022-11-23T18:19:08.520Z,7.70
2022-11-23T18:21:36.651Z,7.80
2022-11-23T18:24:05.183Z,7.80
2022-11-23T18:26:33.752Z,7.70
2022-11-23T18:29:02.586Z,7.80
2022-11-23T18:31:30.981Z,7.80
2022-11-23T18:34:02.711Z,7.80
2022-11-23T18:36:31.047Z,7.80
2022-11-23T18:39:01.665Z,7.80
2022-11-23T18:41:29.816Z,7.80
2022-11-23T18:43:57.856Z,7.70
2022-11-23T18:46:25.989Z,7.70
2022-11-23T18:48:54.075Z,7.70
2022-11-23T18:51:23.511Z,7.70
2022-11-23T18:53:52.964Z,7.70
2022-11-23T18:56:21.031Z,7.70
2022-11-23T18:58:49.332Z,7.70
2022-11-23T19:01:19.748Z,7.60
2022-11-23T19:03:52.676Z,7.60
2022-11-23T19:06:23.937Z,7.60
2022-11-23T19:08:54.655Z,7.60
2022-11-23T19:11:27.619Z,7.60
2022-11-23T19:13:57.989Z,7.50
2022-11-23T19:16:28.778Z,7.60
2022-11-23T19:18:57.848Z,7.50
2022-11-23T19:21:28.539Z,7.50
2022-11-23T19:23:57.649Z,7.50
2022-11-23T19:26:26.613Z,7.50
2022-11-23T19:28:55.561Z,7.40
2022-11-23T19:31:26.369Z,7.40
2022-11-23T19:33:56.984Z,7.40
2022-11-23T19:36:26.935Z,7.30
2022-11-23T19:38:56.940Z,7.30
2022-11-23T19:41:30.191Z,7.30
2022-11-23T19:44:00.487Z,7.30
2022-11-23T19:46:29.555Z,7.30
2022-11-23T19:48:58.386Z,7.30
2022-11-23T19:51:28.927Z,7.30
2022-11-23T19:53:58.077Z,7.30
2022-11-23T19:56:28.853Z,7.30
2022-11-23T19:58:58.820Z,7.30
2022-11-23T20:01:28.479Z,7.20
2022-11-23T20:03:58.075Z,7.20
2022-11-23T20:06:29.484Z,7.10
2022-11-23T20:08:59.010Z,7.10
2022-11-23T20:11:30.498Z,7.20
2022-11-23T20:13:59.128Z,7.20
2022-11-23T20:16:29.388Z,7.20
2022-11-23T20:18:59.123Z,7.20
2022-11-23T20:21:30.118Z,7.10
2022-11-23T20:24:04.320Z,7.30
2022-11-23T20:26:34.897Z,7.20
2022-11-23T20:29:03.763Z,7.20
2022-11-23T20:31:33.007Z,7.20
2022-11-23T20:34:04.137Z,7.30
2022-11-23T20:36:40.880Z,7.20
2022-11-23T20:39:11.790Z,7.30
2022-11-23T20:41:39.892Z,7.20
2022-11-23T20:44:11.441Z,7.30
2022-11-23T20:49:27.531Z,7.30
2022-11-23T20:51:56.948Z,7.30
2022-11-23T20:54:24.954Z,7.30
2022-11-23T20:56:53.024Z,7.40
2022-11-23T20:59:21.364Z,7.50
2022-11-23T21:01:49.518Z,7.50
2022-11-23T21:04:17.699Z,7.60
2022-11-23T21:06:45.882Z,7.60
2022-11-23T21:09:16.978Z,7.60
2022-11-23T21:12:01.780Z,7.60
2022-11-23T21:14:31.603Z,7.70
2022-11-23T21:17:00.725Z,7.70
2022-11-23T21:19:30.535Z,7.70
2022-11-23T21:22:00.028Z,7.70
2022-11-23T21:24:32.987Z,7.70
2022-11-23T21:27:01.211Z,7.80
2022-11-23T21:29:31.469Z,7.90
2022-11-23T21:32:01.303Z,7.80
2022-11-23T21:34:30.809Z,7.80
2022-11-23T21:36:59.356Z,7.90
2022-11-23T21:39:30.895Z,7.90
2022-11-23T21:42:00.501Z,8.00
2022-11-23T21:44:28.535Z,8.00
2022-11-23T21:46:56.873Z,8.10
2022-11-23T21:49:27.159Z,8.30
2022-11-23T21:51:55.224Z,8.40
2022-11-23T21:54:23.252Z,8.50
2022-11-23T21:56:52.654Z,8.50
2022-11-23T21:59:20.675Z,8.60
2022-11-23T22:01:49.251Z,8.70
2022-11-23T22:04:17.662Z,8.70
2022-11-23T22:06:45.870Z,8.80
2022-11-23T22:09:14.897Z,8.70
2022-11-23T22:11:44.835Z,8.70
2022-11-23T22:14:18.521Z,8.70
2022-11-23T22:16:49.437Z,8.70
2022-11-23T22:19:19.083Z,8.60
2022-11-23T22:21:47.759Z,8.60
2022-11-23T22:27:28.790Z,8.60
2022-11-23T22:29:58.348Z,8.60
2022-11-23T22:32:26.629Z,8.60
2022-11-23T22:34:54.838Z,8.70
2022-11-23T22:37:22.959Z,8.70
2022-11-23T22:39:51.102Z,8.60
2022-11-23T22:42:19.237Z,8.60
2022-11-23T22:44:47.646Z,8.60
2022-11-23T22:47:17.276Z,8.70
2022-11-23T22:49:45.469Z,8.70
2022-11-23T22:52:13.736Z,8.70
2022-11-23T22:54:41.970Z,8.70
2022-11-23T22:57:10.093Z,8.70
2022-11-23T22:59:38.589Z,8.60
2022-11-23T23:02:06.758Z,8.60
2022-11-23T23:04:40.156Z,8.70
2022-11-23T23:07:08.356Z,8.70
2022-11-23T23:09:36.531Z,8.70
2022-11-23T23:12:04.802Z,8.60
2022-11-23T23:14:32.961Z,8.60
2022-11-23T23:17:01.939Z,8.60
2022-11-23T23:19:30.181Z,8.60
2022-11-23T23:21:59.697Z,8.60
2022-11-23T23:24:27.832Z,8.60
2022-11-23T23:26:55.985Z,8.60
2022-11-23T23:29:24.158Z,8.70
2022-11-23T23:31:52.493Z,8.70
2022-11-23T23:34:20.730Z,8.60
2022-11-23T23:36:48.897Z,8.70
2022-11-23T23:39:18.789Z,8.70
2022-11-23T23:41:46.968Z,8.70
2022-11-23T23:44:15.138Z,8.70
2022-11-23T23:46:44.521Z,8.70
2022-11-23T23:49:12.783Z,8.70
2022-11-23T23:51:40.989Z,8.70
2022-11-23T23:54:09.185Z,8.70
2022-11-23T23:56:39.153Z,8.60
2022-11-23T23:59:07.330Z,8.70
